首页
METAR-TAF:

METAR-TAF

机场 :

昆明长水国际机场

昆明, 中华人民共和国

纬度: 25-01N, 经度: 102-41E, 海拔: 1892米

当前天气观测

该预报发布于40分钟前的23:00 UTC
风速6节,风向南转西南
温度 16°C
湿度 72%
气压 1015 hPa
能见度10公里或以上
1500米以下无云,无积雨云

METAR: ZPPP 242300Z 21003MPS CAVOK 16/11 Q1015 NOSIG

时间: 07:40 (23:40 UTC)

预报

该预报发布于10小时和35分钟前的13:05 UTC
预报有效从24日的 18点(UTC)到 25日的 18点(UTC)
风速12节,风向西南
能见度10公里或以上
散云层高于2600英尺

TAF: ZPPP 241305Z 2418/2518 23006MPS 9999 SCT026 TX29/2508Z TN16/2423Z

超过4000个机场的气象观测和天气预报(METAR&TAF报告)。

可查询的气象台以黄色和红色小点在地图上表示。

将鼠标移到小点上方,可查看气象台名称。

然后点击查看天气观测和预报。

如需切换地图:点击带黑十字的绿色按钮放大地图;点击带横线的绿色按钮缩小地图;或者点击绿色箭头查看邻近地区的地图。


METAR-TAF: